sensor_id;sensor_type;location;lat;lon;timestamp;temperature;humidity
58849;DHT22;44619;51.022;6.818;2023-04-15T00:00:35;10.50;43.10
58849;DHT22;44619;51.022;6.818;2023-04-15T00:03:01;10.40;43.10
58849;DHT22;44619;51.022;6.818;2023-04-15T00:05:30;10.30;43.30
58849;DHT22;44619;51.022;6.818;2023-04-15T00:07:56;10.30;43.30
58849;DHT22;44619;51.022;6.818;2023-04-15T00:10:27;10.20;43.20
58849;DHT22;44619;51.022;6.818;2023-04-15T00:12:53;10.10;43.40
58849;DHT22;44619;51.022;6.818;2023-04-15T00:15:24;10.00;43.50
58849;DHT22;44619;51.022;6.818;2023-04-15T00:17:51;9.90;43.60
58849;DHT22;44619;51.022;6.818;2023-04-15T00:20:20;10.00;43.50
58849;DHT22;44619;51.022;6.818;2023-04-15T00:22:45;10.00;43.40
58849;DHT22;44619;51.022;6.818;2023-04-15T00:25:11;9.90;43.40
58849;DHT22;44619;51.022;6.818;2023-04-15T00:27:45;9.90;43.50
58849;DHT22;44619;51.022;6.818;2023-04-15T00:30:12;9.70;43.70
58849;DHT22;44619;51.022;6.818;2023-04-15T00:32:37;9.60;43.80
58849;DHT22;44619;51.022;6.818;2023-04-15T00:35:03;9.70;43.70
58849;DHT22;44619;51.022;6.818;2023-04-15T00:37:29;9.80;43.50
58849;DHT22;44619;51.022;6.818;2023-04-15T00:39:55;9.60;43.60
58849;DHT22;44619;51.022;6.818;2023-04-15T00:42:22;9.60;43.60
58849;DHT22;44619;51.022;6.818;2023-04-15T00:44:48;9.50;43.60
58849;DHT22;44619;51.022;6.818;2023-04-15T00:47:14;9.50;43.80
58849;DHT22;44619;51.022;6.818;2023-04-15T00:49:40;9.40;43.60
58849;DHT22;44619;51.022;6.818;2023-04-15T00:52:05;9.30;43.50
58849;DHT22;44619;51.022;6.818;2023-04-15T00:54:34;9.20;43.90
58849;DHT22;44619;51.022;6.818;2023-04-15T00:57:00;9.30;43.80
58849;DHT22;44619;51.022;6.818;2023-04-15T00:59:26;9.20;43.70
58849;DHT22;44619;51.022;6.818;2023-04-15T01:01:57;9.20;43.90
58849;DHT22;44619;51.022;6.818;2023-04-15T01:04:22;9.20;43.70
58849;DHT22;44619;51.022;6.818;2023-04-15T01:06:48;9.00;44.00
58849;DHT22;44619;51.022;6.818;2023-04-15T01:09:13;9.10;43.80
58849;DHT22;44619;51.022;6.818;2023-04-15T01:11:42;9.00;43.90
58849;DHT22;44619;51.022;6.818;2023-04-15T01:14:08;9.00;43.70
58849;DHT22;44619;51.022;6.818;2023-04-15T01:16:34;8.90;44.00
58849;DHT22;44619;51.022;6.818;2023-04-15T01:19:03;8.90;43.80
58849;DHT22;44619;51.022;6.818;2023-04-15T01:21:29;8.90;43.80
58849;DHT22;44619;51.022;6.818;2023-04-15T01:23:54;8.80;43.90
58849;DHT22;44619;51.022;6.818;2023-04-15T01:26:21;8.70;44.10
58849;DHT22;44619;51.022;6.818;2023-04-15T01:28:47;8.80;43.90
58849;DHT22;44619;51.022;6.818;2023-04-15T01:31:16;8.70;43.80
58849;DHT22;44619;51.022;6.818;2023-04-15T01:33:42;8.50;44.10
58849;DHT22;44619;51.022;6.818;2023-04-15T01:36:08;8.50;44.10
58849;DHT22;44619;51.022;6.818;2023-04-15T01:38:34;8.50;44.20
58849;DHT22;44619;51.022;6.818;2023-04-15T01:41:00;8.50;44.20
58849;DHT22;44619;51.022;6.818;2023-04-15T01:43:26;8.50;44.20
58849;DHT22;44619;51.022;6.818;2023-04-15T01:45:52;8.40;44.10
58849;DHT22;44619;51.022;6.818;2023-04-15T01:48:21;8.30;44.30
58849;DHT22;44619;51.022;6.818;2023-04-15T01:50:47;8.40;44.10
58849;DHT22;44619;51.022;6.818;2023-04-15T01:53:13;8.40;43.80
58849;DHT22;44619;51.022;6.818;2023-04-15T01:55:40;8.40;43.90
58849;DHT22;44619;51.022;6.818;2023-04-15T01:58:06;8.40;44.00
58849;DHT22;44619;51.022;6.818;2023-04-15T02:00:31;8.30;44.10
58849;DHT22;44619;51.022;6.818;2023-04-15T02:02:57;8.20;44.60
58849;DHT22;44619;51.022;6.818;2023-04-15T02:05:24;8.20;44.80
58849;DHT22;44619;51.022;6.818;2023-04-15T02:07:53;8.20;45.10
58849;DHT22;44619;51.022;6.818;2023-04-15T02:10:20;8.10;46.50
58849;DHT22;44619;51.022;6.818;2023-04-15T02:12:45;8.20;48.30
58849;DHT22;44619;51.022;6.818;2023-04-15T02:15:14;8.10;49.30
58849;DHT22;44619;51.022;6.818;2023-04-15T02:17:40;8.00;54.10
58849;DHT22;44619;51.022;6.818;2023-04-15T02:20:09;8.00;53.20
58849;DHT22;44619;51.022;6.818;2023-04-15T02:22:34;8.00;52.10
58849;DHT22;44619;51.022;6.818;2023-04-15T02:25:00;7.90;52.00
58849;DHT22;44619;51.022;6.818;2023-04-15T02:27:25;7.90;52.10
58849;DHT22;44619;51.022;6.818;2023-04-15T02:29:52;7.80;52.30
58849;DHT22;44619;51.022;6.818;2023-04-15T02:32:18;7.80;51.50
58849;DHT22;44619;51.022;6.818;2023-04-15T02:34:44;7.70;51.50
58849;DHT22;44619;51.022;6.818;2023-04-15T02:37:11;7.80;51.30
58849;DHT22;44619;51.022;6.818;2023-04-15T02:39:38;7.80;51.10
58849;DHT22;44619;51.022;6.818;2023-04-15T02:42:09;7.60;51.10
58849;DHT22;44619;51.022;6.818;2023-04-15T02:44:35;7.80;50.90
58849;DHT22;44619;51.022;6.818;2023-04-15T02:47:01;7.60;51.10
58849;DHT22;44619;51.022;6.818;2023-04-15T02:49:27;7.60;51.20
58849;DHT22;44619;51.022;6.818;2023-04-15T02:51:55;7.50;51.20
58849;DHT22;44619;51.022;6.818;2023-04-15T02:54:22;7.50;51.10
58849;DHT22;44619;51.022;6.818;2023-04-15T02:56:48;7.40;51.10
58849;DHT22;44619;51.022;6.818;2023-04-15T02:59:14;7.50;50.90
58849;DHT22;44619;51.022;6.818;2023-04-15T03:01:40;7.50;50.70
58849;DHT22;44619;51.022;6.818;2023-04-15T03:04:08;7.40;50.80
58849;DHT22;44619;51.022;6.818;2023-04-15T03:06:34;7.50;50.70
58849;DHT22;44619;51.022;6.818;2023-04-15T03:09:00;7.40;51.50
58849;DHT22;44619;51.022;6.818;2023-04-15T03:11:27;7.30;51.80
58849;DHT22;44619;51.022;6.818;2023-04-15T03:13:53;7.30;51.70
58849;DHT22;44619;51.022;6.818;2023-04-15T03:16:18;7.30;52.20
58849;DHT22;44619;51.022;6.818;2023-04-15T03:18:44;7.30;51.70
58849;DHT22;44619;51.022;6.818;2023-04-15T03:21:09;7.20;51.70
58849;DHT22;44619;51.022;6.818;2023-04-15T03:23:35;7.10;51.70
58849;DHT22;44619;51.022;6.818;2023-04-15T03:26:01;7.00;52.20
58849;DHT22;44619;51.022;6.818;2023-04-15T03:28:26;7.00;52.30
58849;DHT22;44619;51.022;6.818;2023-04-15T03:30:53;7.10;52.20
58849;DHT22;44619;51.022;6.818;2023-04-15T03:33:19;7.00;52.50
58849;DHT22;44619;51.022;6.818;2023-04-15T03:35:45;6.90;52.60
58849;DHT22;44619;51.022;6.818;2023-04-15T03:38:10;6.80;53.40
58849;DHT22;44619;51.022;6.818;2023-04-15T03:40:37;6.90;54.90
58849;DHT22;44619;51.022;6.818;2023-04-15T03:43:02;6.90;55.40
58849;DHT22;44619;51.022;6.818;2023-04-15T03:45:28;6.80;55.80
58849;DHT22;44619;51.022;6.818;2023-04-15T03:47:53;6.90;55.60
58849;DHT22;44619;51.022;6.818;2023-04-15T03:50:22;6.80;55.30
58849;DHT22;44619;51.022;6.818;2023-04-15T03:52:47;6.70;55.20
58849;DHT22;44619;51.022;6.818;2023-04-15T03:55:16;6.60;55.30
58849;DHT22;44619;51.022;6.818;2023-04-15T03:57:43;6.60;54.80
58849;DHT22;44619;51.022;6.818;2023-04-15T04:00:08;6.60;54.50
58849;DHT22;44619;51.022;6.818;2023-04-15T04:02:37;6.50;54.30
58849;DHT22;44619;51.022;6.818;2023-04-15T04:05:03;6.50;53.80
58849;DHT22;44619;51.022;6.818;2023-04-15T04:07:29;6.50;53.80
58849;DHT22;44619;51.022;6.818;2023-04-15T04:09:56;6.60;53.70
58849;DHT22;44619;51.022;6.818;2023-04-15T04:12:21;6.70;53.90
58849;DHT22;44619;51.022;6.818;2023-04-15T04:14:47;6.60;54.40
58849;DHT22;44619;51.022;6.818;2023-04-15T04:17:12;6.60;54.80
58849;DHT22;44619;51.022;6.818;2023-04-15T04:19:38;6.50;54.90
58849;DHT22;44619;51.022;6.818;2023-04-15T04:22:03;6.50;55.50
58849;DHT22;44619;51.022;6.818;2023-04-15T04:24:31;6.50;55.90
58849;DHT22;44619;51.022;6.818;2023-04-15T04:27:00;6.50;55.80
58849;DHT22;44619;51.022;6.818;2023-04-15T04:29:25;6.50;55.60
58849;DHT22;44619;51.022;6.818;2023-04-15T04:31:51;6.40;56.00
58849;DHT22;44619;51.022;6.818;2023-04-15T04:34:16;6.50;55.50
58849;DHT22;44619;51.022;6.818;2023-04-15T04:36:42;6.50;55.30
58849;DHT22;44619;51.022;6.818;2023-04-15T04:39:07;6.50;55.20
58849;DHT22;44619;51.022;6.818;2023-04-15T04:41:33;6.50;55.50
58849;DHT22;44619;51.022;6.818;2023-04-15T04:43:58;6.30;53.80
58849;DHT22;44619;51.022;6.818;2023-04-15T04:46:24;6.30;53.30
58849;DHT22;44619;51.022;6.818;2023-04-15T04:48:49;6.30;52.80
58849;DHT22;44619;51.022;6.818;2023-04-15T04:51:15;6.30;53.20
58849;DHT22;44619;51.022;6.818;2023-04-15T04:53:41;6.30;53.50
58849;DHT22;44619;51.022;6.818;2023-04-15T04:56:07;6.30;53.40
58849;DHT22;44619;51.022;6.818;2023-04-15T04:58:33;6.30;53.70
58849;DHT22;44619;51.022;6.818;2023-04-15T05:01:01;6.20;53.80
58849;DHT22;44619;51.022;6.818;2023-04-15T05:03:27;6.30;53.80
58849;DHT22;44619;51.022;6.818;2023-04-15T05:05:53;6.40;54.40
58849;DHT22;44619;51.022;6.818;2023-04-15T05:08:19;6.30;54.80
58849;DHT22;44619;51.022;6.818;2023-04-15T05:10:44;6.20;55.40
58849;DHT22;44619;51.022;6.818;2023-04-15T05:13:13;6.30;55.60
58849;DHT22;44619;51.022;6.818;2023-04-15T05:15:40;6.30;56.60
58849;DHT22;44619;51.022;6.818;2023-04-15T05:18:12;6.30;57.00
58849;DHT22;44619;51.022;6.818;2023-04-15T05:20:38;6.40;57.10
58849;DHT22;44619;51.022;6.818;2023-04-15T05:23:03;6.30;57.90
58849;DHT22;44619;51.022;6.818;2023-04-15T05:25:29;6.30;58.50
58849;DHT22;44619;51.022;6.818;2023-04-15T05:27:55;6.30;58.70
58849;DHT22;44619;51.022;6.818;2023-04-15T05:30:20;6.30;59.30
58849;DHT22;44619;51.022;6.818;2023-04-15T05:32:46;6.20;59.70
58849;DHT22;44619;51.022;6.818;2023-04-15T05:35:11;6.10;59.70
58849;DHT22;44619;51.022;6.818;2023-04-15T05:37:37;6.30;59.80
58849;DHT22;44619;51.022;6.818;2023-04-15T05:40:04;6.30;59.30
58849;DHT22;44619;51.022;6.818;2023-04-15T05:42:29;6.30;59.10
58849;DHT22;44619;51.022;6.818;2023-04-15T05:44:55;6.30;59.30
58849;DHT22;44619;51.022;6.818;2023-04-15T05:47:20;6.20;59.00
58849;DHT22;44619;51.022;6.818;2023-04-15T05:49:46;6.20;59.00
58849;DHT22;44619;51.022;6.818;2023-04-15T05:52:12;6.20;59.30
58849;DHT22;44619;51.022;6.818;2023-04-15T05:54:37;6.20;59.50
58849;DHT22;44619;51.022;6.818;2023-04-15T05:57:03;6.40;59.10
58849;DHT22;44619;51.022;6.818;2023-04-15T05:59:28;6.40;59.00
58849;DHT22;44619;51.022;6.818;2023-04-15T06:01:54;6.60;58.50
58849;DHT22;44619;51.022;6.818;2023-04-15T06:04:19;6.70;57.90
58849;DHT22;44619;51.022;6.818;2023-04-15T06:06:45;6.80;58.10
58849;DHT22;44619;51.022;6.818;2023-04-15T06:09:10;6.70;58.20
58849;DHT22;44619;51.022;6.818;2023-04-15T06:11:36;6.70;58.20
58849;DHT22;44619;51.022;6.818;2023-04-15T06:14:01;6.80;58.10
58849;DHT22;44619;51.022;6.818;2023-04-15T06:16:30;6.70;58.10
58849;DHT22;44619;51.022;6.818;2023-04-15T06:18:55;6.80;57.90
58849;DHT22;44619;51.022;6.818;2023-04-15T06:21:21;6.80;57.80
58849;DHT22;44619;51.022;6.818;2023-04-15T06:23:46;6.80;58.50
58849;DHT22;44619;51.022;6.818;2023-04-15T06:26:12;6.90;57.90
58849;DHT22;44619;51.022;6.818;2023-04-15T06:28:40;6.80;57.90
58849;DHT22;44619;51.022;6.818;2023-04-15T06:31:05;6.90;57.70
58849;DHT22;44619;51.022;6.818;2023-04-15T06:33:31;7.00;57.60
58849;DHT22;44619;51.022;6.818;2023-04-15T06:35:57;7.10;57.50
58849;DHT22;44619;51.022;6.818;2023-04-15T06:38:22;7.10;57.50
58849;DHT22;44619;51.022;6.818;2023-04-15T06:40:48;7.10;57.70
58849;DHT22;44619;51.022;6.818;2023-04-15T06:43:13;7.20;57.50
58849;DHT22;44619;51.022;6.818;2023-04-15T06:45:39;7.20;57.50
58849;DHT22;44619;51.022;6.818;2023-04-15T06:48:05;7.20;57.00
58849;DHT22;44619;51.022;6.818;2023-04-15T06:50:30;7.30;57.00
58849;DHT22;44619;51.022;6.818;2023-04-15T06:52:56;7.40;56.90
58849;DHT22;44619;51.022;6.818;2023-04-15T06:55:27;7.40;56.70
58849;DHT22;44619;51.022;6.818;2023-04-15T06:57:53;7.50;56.30
58849;DHT22;44619;51.022;6.818;2023-04-15T07:00:18;7.60;56.20
58849;DHT22;44619;51.022;6.818;2023-04-15T07:02:44;7.60;56.20
58849;DHT22;44619;51.022;6.818;2023-04-15T07:05:10;7.70;55.80
58849;DHT22;44619;51.022;6.818;2023-04-15T07:07:37;7.80;55.80
58849;DHT22;44619;51.022;6.818;2023-04-15T07:10:02;7.80;55.70
58849;DHT22;44619;51.022;6.818;2023-04-15T07:12:28;7.90;55.70
58849;DHT22;44619;51.022;6.818;2023-04-15T07:14:54;8.00;55.40
58849;DHT22;44619;51.022;6.818;2023-04-15T07:17:20;8.10;55.10
58849;DHT22;44619;51.022;6.818;2023-04-15T07:19:46;8.20;54.80
58849;DHT22;44619;51.022;6.818;2023-04-15T15:20:42;17.90;55.30
58849;DHT22;44619;51.022;6.818;2023-04-15T15:23:08;17.30;50.50
58849;DHT22;44619;51.022;6.818;2023-04-15T15:25:34;17.20;50.50
58849;DHT22;44619;51.022;6.818;2023-04-15T15:28:01;17.20;50.00
58849;DHT22;44619;51.022;6.818;2023-04-15T15:30:26;17.30;49.70
58849;DHT22;44619;51.022;6.818;2023-04-15T15:32:52;17.30;49.20
58849;DHT22;44619;51.022;6.818;2023-04-15T15:35:17;17.40;48.70
58849;DHT22;44619;51.022;6.818;2023-04-15T15:37:43;17.40;48.40
58849;DHT22;44619;51.022;6.818;2023-04-15T15:40:09;17.40;48.10
58849;DHT22;44619;51.022;6.818;2023-04-15T15:42:36;17.40;47.90
58849;DHT22;44619;51.022;6.818;2023-04-15T15:45:02;17.40;47.60
58849;DHT22;44619;51.022;6.818;2023-04-15T15:47:31;17.30;47.50
58849;DHT22;44619;51.022;6.818;2023-04-15T15:49:56;17.30;47.50
58849;DHT22;44619;51.022;6.818;2023-04-15T15:52:22;17.10;47.40
58849;DHT22;44619;51.022;6.818;2023-04-15T15:54:50;17.00;47.60
58849;DHT22;44619;51.022;6.818;2023-04-15T15:57:16;16.80;47.70
58849;DHT22;44619;51.022;6.818;2023-04-15T15:59:42;16.60;47.90
58849;DHT22;44619;51.022;6.818;2023-04-15T16:02:11;16.50;48.20
58849;DHT22;44619;51.022;6.818;2023-04-15T16:04:37;16.40;48.10
58849;DHT22;44619;51.022;6.818;2023-04-15T16:07:03;16.30;48.20
58849;DHT22;44619;51.022;6.818;2023-04-15T16:09:29;16.20;48.00
58849;DHT22;44619;51.022;6.818;2023-04-15T16:11:56;16.20;48.10
58849;DHT22;44619;51.022;6.818;2023-04-15T16:14:22;16.10;48.10
58849;DHT22;44619;51.022;6.818;2023-04-15T16:16:48;16.00;48.10
58849;DHT22;44619;51.022;6.818;2023-04-15T16:19:13;16.00;48.00
58849;DHT22;44619;51.022;6.818;2023-04-15T16:21:40;15.90;48.20
58849;DHT22;44619;51.022;6.818;2023-04-15T16:24:06;15.70;48.10
58849;DHT22;44619;51.022;6.818;2023-04-15T16:26:31;15.70;48.90
58849;DHT22;44619;51.022;6.818;2023-04-15T16:28:57;15.70;48.20
58849;DHT22;44619;51.022;6.818;2023-04-15T16:31:23;15.60;48.10
58849;DHT22;44619;51.022;6.818;2023-04-15T16:33:48;15.50;48.20
58849;DHT22;44619;51.022;6.818;2023-04-15T16:36:13;15.40;48.10
58849;DHT22;44619;51.022;6.818;2023-04-15T16:38:39;15.40;48.10
58849;DHT22;44619;51.022;6.818;2023-04-15T16:41:05;15.30;48.10
58849;DHT22;44619;51.022;6.818;2023-04-15T16:43:30;15.20;48.30
58849;DHT22;44619;51.022;6.818;2023-04-15T16:45:56;15.20;48.10
58849;DHT22;44619;51.022;6.818;2023-04-15T16:48:22;15.10;48.40
58849;DHT22;44619;51.022;6.818;2023-04-15T16:50:47;15.10;48.30
58849;DHT22;44619;51.022;6.818;2023-04-15T16:53:14;15.10;48.10
58849;DHT22;44619;51.022;6.818;2023-04-15T16:55:41;15.00;48.20
58849;DHT22;44619;51.022;6.818;2023-04-15T16:58:10;14.80;48.40
58849;DHT22;44619;51.022;6.818;2023-04-15T17:00:41;14.80;48.40
58849;DHT22;44619;51.022;6.818;2023-04-15T17:03:10;14.90;48.10
58849;DHT22;44619;51.022;6.818;2023-04-15T17:05:36;14.80;48.20
58849;DHT22;44619;51.022;6.818;2023-04-15T17:08:02;14.60;48.20
58849;DHT22;44619;51.022;6.818;2023-04-15T17:10:31;14.70;48.20
58849;DHT22;44619;51.022;6.818;2023-04-15T17:12:56;14.60;48.20
58849;DHT22;44619;51.022;6.818;2023-04-15T17:15:25;14.50;48.30
58849;DHT22;44619;51.022;6.818;2023-04-15T17:17:51;14.50;48.90
58849;DHT22;44619;51.022;6.818;2023-04-15T17:20:17;14.50;48.20
58849;DHT22;44619;51.022;6.818;2023-04-15T17:22:42;14.30;48.30
58849;DHT22;44619;51.022;6.818;2023-04-15T17:25:08;14.30;48.70
58849;DHT22;44619;51.022;6.818;2023-04-15T17:27:34;14.20;48.70
58849;DHT22;44619;51.022;6.818;2023-04-15T17:29:59;14.20;48.50
58849;DHT22;44619;51.022;6.818;2023-04-15T17:32:25;14.10;48.60
58849;DHT22;44619;51.022;6.818;2023-04-15T17:34:56;14.00;48.80
58849;DHT22;44619;51.022;6.818;2023-04-15T17:37:21;14.00;48.80
58849;DHT22;44619;51.022;6.818;2023-04-15T17:39:47;14.00;48.60
58849;DHT22;44619;51.022;6.818;2023-04-15T17:42:12;14.00;48.70
58849;DHT22;44619;51.022;6.818;2023-04-15T17:44:38;13.90;49.00
58849;DHT22;44619;51.022;6.818;2023-04-15T17:47:03;13.80;49.20
58849;DHT22;44619;51.022;6.818;2023-04-15T17:49:29;13.60;49.40
58849;DHT22;44619;51.022;6.818;2023-04-15T17:51:55;13.50;49.60
58849;DHT22;44619;51.022;6.818;2023-04-15T17:54:21;13.50;49.50
58849;DHT22;44619;51.022;6.818;2023-04-15T17:56:47;13.50;49.70
58849;DHT22;44619;51.022;6.818;2023-04-15T17:59:16;13.40;49.60
58849;DHT22;44619;51.022;6.818;2023-04-15T18:01:41;13.40;49.50
58849;DHT22;44619;51.022;6.818;2023-04-15T18:04:08;13.40;49.60
58849;DHT22;44619;51.022;6.818;2023-04-15T18:06:34;13.30;49.40
58849;DHT22;44619;51.022;6.818;2023-04-15T18:09:01;13.40;49.30
58849;DHT22;44619;51.022;6.818;2023-04-15T18:11:26;13.40;49.20
58849;DHT22;44619;51.022;6.818;2023-04-15T18:13:52;13.40;49.20
58849;DHT22;44619;51.022;6.818;2023-04-15T18:16:17;13.30;49.50
58849;DHT22;44619;51.022;6.818;2023-04-15T18:18:43;13.20;49.40
58849;DHT22;44619;51.022;6.818;2023-04-15T18:21:08;13.10;49.50
58849;DHT22;44619;51.022;6.818;2023-04-15T18:23:34;13.10;49.60
58849;DHT22;44619;51.022;6.818;2023-04-15T18:26:00;13.00;49.70
58849;DHT22;44619;51.022;6.818;2023-04-15T18:28:26;13.00;49.70
58849;DHT22;44619;51.022;6.818;2023-04-15T18:30:52;13.00;49.80
58849;DHT22;44619;51.022;6.818;2023-04-15T18:33:17;13.00;49.90
58849;DHT22;44619;51.022;6.818;2023-04-15T18:35:43;13.00;49.70
58849;DHT22;44619;51.022;6.818;2023-04-15T18:38:08;13.00;49.60
58849;DHT22;44619;51.022;6.818;2023-04-15T18:40:34;13.00;49.40
58849;DHT22;44619;51.022;6.818;2023-04-15T18:43:00;12.90;49.40
58849;DHT22;44619;51.022;6.818;2023-04-15T18:45:25;12.90;49.30
58849;DHT22;44619;51.022;6.818;2023-04-15T18:47:51;13.00;49.10
58849;DHT22;44619;51.022;6.818;2023-04-15T18:50:17;12.90;49.40
58849;DHT22;44619;51.022;6.818;2023-04-15T18:52:42;12.80;49.50
58849;DHT22;44619;51.022;6.818;2023-04-15T18:55:11;12.80;49.30
58849;DHT22;44619;51.022;6.818;2023-04-15T18:57:39;12.70;49.20
58849;DHT22;44619;51.022;6.818;2023-04-15T19:00:08;12.80;49.20
58849;DHT22;44619;51.022;6.818;2023-04-15T19:02:35;12.80;49.70
58849;DHT22;44619;51.022;6.818;2023-04-15T19:05:00;12.70;49.10
58849;DHT22;44619;51.022;6.818;2023-04-15T19:07:31;12.60;49.10
58849;DHT22;44619;51.022;6.818;2023-04-15T19:09:57;12.60;49.20
58849;DHT22;44619;51.022;6.818;2023-04-15T19:12:22;12.50;49.10
58849;DHT22;44619;51.022;6.818;2023-04-15T19:14:48;12.50;49.20
58849;DHT22;44619;51.022;6.818;2023-04-15T19:17:13;12.40;49.00
58849;DHT22;44619;51.022;6.818;2023-04-15T19:19:39;12.40;49.20
58849;DHT22;44619;51.022;6.818;2023-04-15T19:22:05;12.40;49.30
58849;DHT22;44619;51.022;6.818;2023-04-15T19:24:30;12.40;49.10
58849;DHT22;44619;51.022;6.818;2023-04-15T19:26:56;12.30;49.30
58849;DHT22;44619;51.022;6.818;2023-04-15T19:29:22;12.30;49.10
58849;DHT22;44619;51.022;6.818;2023-04-15T19:31:48;12.30;49.20
58849;DHT22;44619;51.022;6.818;2023-04-15T19:34:14;12.20;49.30
58849;DHT22;44619;51.022;6.818;2023-04-15T19:36:39;12.20;49.20
58849;DHT22;44619;51.022;6.818;2023-04-15T19:39:05;12.20;49.20
58849;DHT22;44619;51.022;6.818;2023-04-15T19:41:30;12.20;49.10
58849;DHT22;44619;51.022;6.818;2023-04-15T19:43:56;12.20;49.20
58849;DHT22;44619;51.022;6.818;2023-04-15T19:46:22;12.00;49.50
58849;DHT22;44619;51.022;6.818;2023-04-15T19:48:47;11.90;49.50
58849;DHT22;44619;51.022;6.818;2023-04-15T19:51:13;11.90;49.40
58849;DHT22;44619;51.022;6.818;2023-04-15T19:53:38;11.80;49.60
58849;DHT22;44619;51.022;6.818;2023-04-15T19:56:05;11.80;49.60
58849;DHT22;44619;51.022;6.818;2023-04-15T19:58:30;11.80;49.70
58849;DHT22;44619;51.022;6.818;2023-04-15T20:00:56;11.80;49.70
58849;DHT22;44619;51.022;6.818;2023-04-15T20:03:22;11.70;49.60
58849;DHT22;44619;51.022;6.818;2023-04-15T20:05:47;11.70;49.80
58849;DHT22;44619;51.022;6.818;2023-04-15T20:08:13;11.60;49.80
58849;DHT22;44619;51.022;6.818;2023-04-15T20:10:38;11.60;49.80
58849;DHT22;44619;51.022;6.818;2023-04-15T20:13:04;11.60;50.00
58849;DHT22;44619;51.022;6.818;2023-04-15T20:15:31;11.50;50.10
58849;DHT22;44619;51.022;6.818;2023-04-15T20:17:56;11.50;50.20
58849;DHT22;44619;51.022;6.818;2023-04-15T20:20:22;11.50;50.10
58849;DHT22;44619;51.022;6.818;2023-04-15T20:22:50;11.50;50.10
58849;DHT22;44619;51.022;6.818;2023-04-15T20:25:17;11.40;50.10
58849;DHT22;44619;51.022;6.818;2023-04-15T20:27:42;11.40;50.30
58849;DHT22;44619;51.022;6.818;2023-04-15T20:30:11;11.40;50.30
58849;DHT22;44619;51.022;6.818;2023-04-15T20:32:37;11.30;50.30
58849;DHT22;44619;51.022;6.818;2023-04-15T20:35:05;11.30;50.50
58849;DHT22;44619;51.022;6.818;2023-04-15T20:37:35;11.20;50.40
58849;DHT22;44619;51.022;6.818;2023-04-15T20:40:01;11.20;50.40
58849;DHT22;44619;51.022;6.818;2023-04-15T20:42:26;11.10;50.60
58849;DHT22;44619;51.022;6.818;2023-04-15T20:44:52;11.10;50.60
58849;DHT22;44619;51.022;6.818;2023-04-15T20:47:17;11.10;50.60
58849;DHT22;44619;51.022;6.818;2023-04-15T20:49:43;11.10;50.60
58849;DHT22;44619;51.022;6.818;2023-04-15T20:52:08;11.10;50.60
58849;DHT22;44619;51.022;6.818;2023-04-15T20:54:34;11.00;50.90
58849;DHT22;44619;51.022;6.818;2023-04-15T20:56:59;10.90;50.90
58849;DHT22;44619;51.022;6.818;2023-04-15T20:59:26;11.00;51.00
58849;DHT22;44619;51.022;6.818;2023-04-15T21:01:51;10.90;51.10
58849;DHT22;44619;51.022;6.818;2023-04-15T21:04:17;10.80;51.10
58849;DHT22;44619;51.022;6.818;2023-04-15T21:06:43;10.80;51.30
58849;DHT22;44619;51.022;6.818;2023-04-15T21:09:08;10.70;51.40
58849;DHT22;44619;51.022;6.818;2023-04-15T21:11:34;10.80;51.20
58849;DHT22;44619;51.022;6.818;2023-04-15T21:14:00;10.80;51.30
58849;DHT22;44619;51.022;6.818;2023-04-15T21:16:25;10.80;51.50
58849;DHT22;44619;51.022;6.818;2023-04-15T21:18:51;10.80;51.30
58849;DHT22;44619;51.022;6.818;2023-04-15T21:21:16;10.80;51.20
58849;DHT22;44619;51.022;6.818;2023-04-15T21:23:42;10.80;51.30
58849;DHT22;44619;51.022;6.818;2023-04-15T21:26:07;10.70;51.50
58849;DHT22;44619;51.022;6.818;2023-04-15T21:28:33;10.70;51.60
58849;DHT22;44619;51.022;6.818;2023-04-15T21:30:59;10.60;51.80
58849;DHT22;44619;51.022;6.818;2023-04-15T21:33:24;10.60;51.60
58849;DHT22;44619;51.022;6.818;2023-04-15T21:35:51;10.70;51.70
58849;DHT22;44619;51.022;6.818;2023-04-15T21:38:16;10.70;51.80
58849;DHT22;44619;51.022;6.818;2023-04-15T21:40:42;10.60;51.90
58849;DHT22;44619;51.022;6.818;2023-04-15T21:43:13;10.50;51.90
58849;DHT22;44619;51.022;6.818;2023-04-15T21:45:39;10.50;51.90
58849;DHT22;44619;51.022;6.818;2023-04-15T21:48:10;10.50;52.10
58849;DHT22;44619;51.022;6.818;2023-04-15T21:50:37;10.40;52.00
58849;DHT22;44619;51.022;6.818;2023-04-15T21:53:03;10.50;52.10
58849;DHT22;44619;51.022;6.818;2023-04-15T21:55:28;10.40;52.30
58849;DHT22;44619;51.022;6.818;2023-04-15T21:57:54;10.40;52.50
58849;DHT22;44619;51.022;6.818;2023-04-15T22:00:19;10.20;52.40
58849;DHT22;44619;51.022;6.818;2023-04-15T22:02:47;10.30;52.50
58849;DHT22;44619;51.022;6.818;2023-04-15T22:05:12;10.40;52.30
58849;DHT22;44619;51.022;6.818;2023-04-15T22:07:38;10.30;52.40
58849;DHT22;44619;51.022;6.818;2023-04-15T22:10:03;10.20;52.40
58849;DHT22;44619;51.022;6.818;2023-04-15T22:12:29;10.20;52.70
58849;DHT22;44619;51.022;6.818;2023-04-15T22:14:58;10.20;52.60
58849;DHT22;44619;51.022;6.818;2023-04-15T22:17:24;10.20;52.70
58849;DHT22;44619;51.022;6.818;2023-04-15T22:19:49;10.30;52.40
58849;DHT22;44619;51.022;6.818;2023-04-15T22:22:15;10.20;52.60
58849;DHT22;44619;51.022;6.818;2023-04-15T22:24:40;10.10;52.60
58849;DHT22;44619;51.022;6.818;2023-04-15T22:27:06;10.20;52.80
58849;DHT22;44619;51.022;6.818;2023-04-15T22:29:32;10.20;52.60
58849;DHT22;44619;51.022;6.818;2023-04-15T22:31:57;10.20;52.60
58849;DHT22;44619;51.022;6.818;2023-04-15T22:34:23;10.10;52.90
58849;DHT22;44619;51.022;6.818;2023-04-15T22:36:49;10.20;52.80
58849;DHT22;44619;51.022;6.818;2023-04-15T22:39:17;10.20;52.60
58849;DHT22;44619;51.022;6.818;2023-04-15T22:41:43;10.10;52.60
58849;DHT22;44619;51.022;6.818;2023-04-15T22:44:09;10.00;52.70
58849;DHT22;44619;51.022;6.818;2023-04-15T22:46:34;10.00;52.70
58849;DHT22;44619;51.022;6.818;2023-04-15T22:49:00;9.90;52.90
58849;DHT22;44619;51.022;6.818;2023-04-15T22:51:35;10.00;52.90
58849;DHT22;44619;51.022;6.818;2023-04-15T22:54:01;10.00;53.00
58849;DHT22;44619;51.022;6.818;2023-04-15T22:56:26;9.90;53.80
58849;DHT22;44619;51.022;6.818;2023-04-15T22:58:52;9.90;53.10
58849;DHT22;44619;51.022;6.818;2023-04-15T23:01:17;9.90;52.90
58849;DHT22;44619;51.022;6.818;2023-04-15T23:03:43;9.90;52.70
58849;DHT22;44619;51.022;6.818;2023-04-15T23:06:12;9.90;52.80
58849;DHT22;44619;51.022;6.818;2023-04-15T23:08:38;9.90;52.90
58849;DHT22;44619;51.022;6.818;2023-04-15T23:11:04;9.80;53.10
58849;DHT22;44619;51.022;6.818;2023-04-15T23:13:29;9.90;53.00
58849;DHT22;44619;51.022;6.818;2023-04-15T23:15:55;9.90;52.80
58849;DHT22;44619;51.022;6.818;2023-04-15T23:18:20;9.80;53.00
58849;DHT22;44619;51.022;6.818;2023-04-15T23:20:46;9.80;53.20
58849;DHT22;44619;51.022;6.818;2023-04-15T23:23:11;9.70;53.20
58849;DHT22;44619;51.022;6.818;2023-04-15T23:25:37;9.80;53.10
58849;DHT22;44619;51.022;6.818;2023-04-15T23:28:02;9.80;53.20